createdAt,value
2024-01-06T14:39:52.918Z,36.10
2024-01-06T14:42:40.038Z,39.07
2024-01-06T14:45:26.357Z,47.33
2024-01-06T14:48:13.206Z,45.53
2024-01-06T14:50:59.543Z,46.43
2024-01-06T14:53:46.456Z,48.17
2024-01-06T14:56:34.384Z,47.43
2024-01-06T14:59:21.351Z,52.43
2024-01-06T15:02:08.550Z,47.10
2024-01-06T15:04:56.043Z,52.40
2024-01-06T15:07:43.623Z,48.50
2024-01-06T15:10:29.929Z,48.00
2024-01-06T15:13:18.142Z,47.13
2024-01-06T15:16:05.002Z,51.33
2024-01-06T15:18:52.662Z,43.10
2024-01-06T15:21:39.276Z,40.33
2024-01-06T15:24:25.736Z,36.30
2024-01-06T15:27:12.769Z,40.93
2024-01-06T15:30:02.648Z,32.77
2024-01-06T15:32:49.927Z,42.40
2024-01-06T15:35:37.104Z,41.63
2024-01-06T15:38:23.822Z,42.70
2024-01-06T15:41:11.498Z,38.63
2024-01-06T15:43:58.249Z,38.50
2024-01-06T15:46:46.630Z,36.70
2024-01-06T15:49:33.492Z,33.63
2024-01-06T15:52:22.670Z,41.00
2024-01-06T15:55:10.619Z,36.43
2024-01-06T15:57:57.428Z,40.87
2024-01-06T16:00:43.995Z,40.70
2024-01-06T16:03:32.243Z,42.30
2024-01-06T16:06:19.029Z,42.90
2024-01-06T16:09:06.867Z,43.87
2024-01-06T16:11:53.468Z,45.93
2024-01-06T16:14:39.765Z,44.80
2024-01-06T16:17:26.439Z,59.53
2024-01-06T16:20:14.734Z,55.23
2024-01-06T16:23:01.212Z,53.03
2024-01-06T16:25:48.033Z,55.80
2024-01-06T16:28:34.794Z,53.07
2024-01-06T16:31:25.916Z,56.80
2024-01-06T16:34:13.017Z,54.77
2024-01-06T16:37:00.945Z,60.50
2024-01-06T16:39:47.189Z,70.10
2024-01-06T16:42:33.691Z,62.17
2024-01-06T16:45:20.499Z,60.13
2024-01-06T16:48:08.624Z,66.43
2024-01-06T16:50:55.093Z,56.93
2024-01-06T16:53:43.333Z,64.40
2024-01-06T16:56:29.733Z,67.70
2024-01-06T16:59:16.360Z,69.13
2024-01-06T17:02:03.957Z,74.30
2024-01-06T17:04:51.046Z,67.67
2024-01-06T17:07:37.793Z,73.53
2024-01-06T17:10:25.946Z,65.97
2024-01-06T17:13:12.586Z,68.37
2024-01-06T17:15:59.037Z,72.87
2024-01-06T17:18:45.953Z,66.33
2024-01-06T17:21:32.758Z,60.43
2024-01-06T17:24:19.207Z,64.10
2024-01-06T17:27:07.557Z,65.40
2024-01-06T17:29:54.106Z,71.33
2024-01-06T17:32:40.429Z,69.40
2024-01-06T17:35:27.311Z,64.20
2024-01-06T17:38:13.873Z,62.40
2024-01-06T17:41:00.402Z,62.33
2024-01-06T17:43:48.697Z,67.67
2024-01-06T17:46:35.851Z,66.10
2024-01-06T17:49:22.353Z,66.30
2024-01-06T17:52:11.935Z,57.67
2024-01-06T17:54:58.844Z,69.07
2024-01-06T17:57:45.562Z,63.47
2024-01-06T18:00:33.633Z,68.90
2024-01-06T18:03:20.453Z,65.63
2024-01-06T18:06:07.440Z,65.93
2024-01-06T18:08:53.660Z,66.03
2024-01-06T18:11:42.340Z,62.10
2024-01-06T18:14:35.981Z,57.90
2024-01-06T18:17:23.961Z,57.63
2024-01-06T18:20:11.575Z,57.40
2024-01-06T18:23:00.260Z,57.97
2024-01-06T18:25:46.580Z,60.10
2024-01-06T18:28:33.474Z,55.93
2024-01-06T18:31:20.217Z,52.47
2024-01-06T18:34:08.343Z,61.97
2024-01-06T18:36:55.410Z,55.80
2024-01-06T18:39:42.113Z,64.20
2024-01-06T18:42:29.073Z,64.83
2024-01-06T18:45:15.992Z,65.73
2024-01-06T18:48:02.849Z,71.50
2024-01-06T18:50:50.654Z,64.37
2024-01-06T18:53:40.312Z,61.17
2024-01-06T18:56:28.449Z,64.93
2024-01-06T18:59:15.069Z,62.63
2024-01-06T19:02:01.486Z,72.03
2024-01-06T19:04:48.029Z,64.80
2024-01-06T19:07:36.721Z,64.57
2024-01-06T19:10:23.470Z,65.40
2024-01-06T19:13:10.809Z,64.40
2024-01-06T19:15:57.218Z,66.17
2024-01-06T19:18:43.876Z,70.67
2024-01-06T19:21:30.735Z,68.47
2024-01-06T19:24:27.733Z,75.07
2024-01-06T19:27:19.538Z,60.50
2024-01-06T19:30:07.035Z,68.27
2024-01-06T19:32:53.339Z,74.53
2024-01-06T19:35:40.170Z,69.53
2024-01-06T19:38:26.673Z,71.07
2024-01-06T19:41:17.571Z,68.33
2024-01-06T19:44:04.577Z,63.07
2024-01-06T19:46:50.984Z,60.23
2024-01-06T19:49:37.491Z,59.03
2024-01-06T19:52:23.791Z,65.00
2024-01-06T19:55:11.560Z,56.20
2024-01-06T19:57:59.869Z,56.40
2024-01-06T20:00:46.441Z,61.50
2024-01-06T20:03:33.013Z,55.67
2024-01-06T20:06:20.206Z,50.87
2024-01-06T20:09:07.734Z,58.70
2024-01-06T20:11:54.869Z,58.10
2024-01-06T20:14:42.681Z,48.77
2024-01-06T20:17:29.437Z,54.13
2024-01-06T20:20:16.103Z,54.13
2024-01-06T20:23:02.827Z,49.83
2024-01-06T20:25:49.416Z,53.10
2024-01-06T20:28:35.789Z,47.40
2024-01-06T20:31:24.121Z,47.37
2024-01-06T20:34:11.244Z,51.30
2024-01-06T20:36:58.391Z,48.87
2024-01-06T20:39:45.377Z,59.63
2024-01-06T20:42:31.749Z,50.37
2024-01-06T20:45:19.243Z,48.87
2024-01-06T20:48:09.449Z,48.03
2024-01-06T20:50:56.305Z,43.67
2024-01-06T20:53:42.966Z,50.93
2024-01-06T20:56:29.748Z,46.90
2024-01-06T20:59:16.371Z,46.00
2024-01-06T21:02:03.735Z,44.10
2024-01-06T21:04:51.397Z,42.97
2024-01-06T21:07:42.477Z,45.83
2024-01-06T21:10:29.211Z,41.63
2024-01-06T21:13:15.722Z,48.67
2024-01-06T21:16:03.761Z,48.13
2024-01-06T21:18:51.033Z,43.77
2024-01-06T21:21:42.134Z,40.57
2024-01-06T21:24:28.765Z,46.00
2024-01-06T21:27:15.409Z,37.30
2024-01-06T21:30:05.509Z,40.07
2024-01-06T21:32:52.895Z,39.63
2024-01-06T21:35:39.472Z,38.70
2024-01-06T21:38:27.317Z,41.97
2024-01-06T21:41:13.812Z,47.43
2024-01-06T21:44:00.555Z,48.90
2024-01-06T21:46:47.649Z,56.53
2024-01-06T21:49:34.610Z,49.83
2024-01-06T21:52:21.847Z,53.83
2024-01-06T21:55:12.096Z,54.27
2024-01-06T21:57:58.871Z,49.77
2024-01-06T22:00:45.453Z,60.67
2024-01-06T22:03:32.260Z,56.43
2024-01-06T22:06:18.950Z,53.27
2024-01-06T22:09:10.901Z,52.30
2024-01-06T22:12:00.901Z,47.93
2024-01-06T22:14:47.471Z,49.47
2024-01-06T22:17:34.092Z,57.50
2024-01-06T22:20:20.581Z,50.20
2024-01-06T22:23:06.969Z,53.97
2024-01-06T22:25:53.221Z,51.30
2024-01-06T22:28:40.997Z,45.77
2024-01-06T22:31:28.134Z,43.20
2024-01-06T22:34:15.074Z,43.37
2024-01-06T22:37:01.718Z,38.73
2024-01-06T22:39:48.756Z,40.60
2024-01-06T22:42:35.177Z,35.30
2024-01-06T22:45:24.087Z,35.30
2024-01-06T22:48:11.976Z,37.73
2024-01-06T22:50:58.418Z,24.57
2024-01-06T22:53:44.947Z,25.10
2024-01-06T22:56:31.598Z,26.97
2024-01-06T22:59:18.065Z,24.87
2024-01-06T23:02:06.773Z,30.97
2024-01-06T23:04:54.493Z,30.47
2024-01-06T23:07:41.427Z,30.63
2024-01-06T23:10:27.883Z,39.10
